Time;durP1;ratioP1;P1;durP2;ratioP2;P2;SDS_P1;SDS_P2;PMS_P1;PMS_P2;Temp;Humidity;BMP_temperature;BMP_pressure;BME280_temperature;BME280_humidity;BME280_pressure;Samples;Min_cycle;Max_cycle;Signal;HPM_P1;HPM_P2
2023/12/03 00:00:11;;;;;;;26.35;12.77;;;-2.20;99.90;;;;;;5021076;28;20050;-62
2023/12/03 00:02:38;;;;;;;26.48;12.02;;;-2.30;99.90;;;;;;5020275;28;20080;-62
2023/12/03 00:05:06;;;;;;;27.23;13.05;;;-2.30;99.90;;;;;;5012953;28;20505;-62
2023/12/03 00:07:34;;;;;;;27.70;12.27;;;-2.30;99.90;;;;;;5026102;28;20080;-62
2023/12/03 00:10:01;;;;;;;23.08;11.85;;;-2.40;99.90;;;;;;5014819;28;20494;-62
2023/12/03 00:12:29;;;;;;;19.67;10.35;;;-2.40;99.90;;;;;;5020077;28;20046;-61
2023/12/03 00:14:57;;;;;;;23.40;11.35;;;-2.40;99.90;;;;;;5014020;28;20034;-61
2023/12/03 00:17:24;;;;;;;22.50;11.38;;;-2.50;99.90;;;;;;5027897;28;20068;-62
2023/12/03 00:19:51;;;;;;;24.60;12.40;;;-2.60;99.90;;;;;;5013483;28;20513;-61
2023/12/03 00:22:18;;;;;;;23.17;10.27;;;-2.60;99.90;;;;;;5012673;28;20060;-62
2023/12/03 00:24:45;;;;;;;23.83;10.82;;;-2.70;99.90;;;;;;5022451;28;20053;-62
2023/12/03 00:27:12;;;;;;;22.02;10.30;;;-2.60;99.90;;;;;;5008690;28;20048;-62
2023/12/03 00:29:39;;;;;;;20.80;9.35;;;-2.60;99.90;;;;;;5012799;28;20030;-61
2023/12/03 00:32:06;;;;;;;23.33;10.40;;;-2.70;99.90;;;;;;5019390;28;20046;-61
2023/12/03 00:34:33;;;;;;;22.27;10.50;;;-2.70;99.90;;;;;;5022712;28;20041;-61
2023/12/03 00:36:59;;;;;;;22.27;10.90;;;-2.70;99.90;;;;;;5012674;28;20064;-62
2023/12/03 00:39:26;;;;;;;20.50;10.20;;;-2.60;99.90;;;;;;5028924;28;20658;-62
2023/12/03 00:41:53;;;;;;;22.83;10.68;;;-2.60;99.90;;;;;;5014946;28;20041;-62
2023/12/03 00:44:20;;;;;;;20.38;9.93;;;-2.50;99.90;;;;;;5009171;28;20412;-62
2023/12/03 00:46:47;;;;;;;27.33;11.98;;;-2.60;99.90;;;;;;5004368;28;20053;-62
2023/12/03 00:49:13;;;;;;;21.80;10.48;;;-2.60;99.90;;;;;;5018983;28;20114;-62
2023/12/03 00:51:40;;;;;;;23.15;11.20;;;-2.60;99.90;;;;;;4994923;28;20091;-62
2023/12/03 00:54:07;;;;;;;20.95;10.65;;;-2.60;99.90;;;;;;5017205;28;20042;-62
2023/12/03 00:56:34;;;;;;;27.48;12.25;;;-2.50;99.90;;;;;;5010779;28;20041;-62
2023/12/03 00:59:01;;;;;;;24.05;11.13;;;-2.50;99.90;;;;;;5021949;28;20514;-62
2023/12/03 01:01:28;;;;;;;27.25;13.00;;;-2.60;99.90;;;;;;5013826;28;20037;-62
2023/12/03 01:03:55;;;;;;;30.90;14.20;;;-2.50;99.90;;;;;;5017227;28;20100;-62
2023/12/03 01:06:22;;;;;;;29.48;13.35;;;-2.50;99.90;;;;;;5014192;28;20052;-62
2023/12/03 01:08:49;;;;;;;32.25;14.25;;;-2.50;99.90;;;;;;5017233;28;20112;-61
2023/12/03 01:11:16;;;;;;;24.00;12.32;;;-2.50;99.90;;;;;;5026678;28;20120;-62
2023/12/03 01:14:02;;;;;;;27.60;13.25;;;-2.50;99.90;;;;;;5016094;28;20038;-62
2023/12/03 01:16:29;;;;;;;28.75;12.70;;;-2.40;99.90;;;;;;5022181;28;20108;-62
2023/12/03 01:18:56;;;;;;;29.10;13.35;;;-2.40;99.90;;;;;;5018907;28;20141;-60
2023/12/03 01:21:23;;;;;;;25.50;13.55;;;-2.40;99.90;;;;;;5005875;28;20073;-60
2023/12/03 01:23:50;;;;;;;32.03;13.82;;;-2.40;99.90;;;;;;5018158;28;20053;-61
2023/12/03 01:26:17;;;;;;;27.73;13.43;;;-2.50;99.90;;;;;;4996862;28;20041;-62
2023/12/03 01:28:44;;;;;;;29.05;14.13;;;-2.40;99.90;;;;;;5007013;28;20133;-61
2023/12/03 01:31:11;;;;;;;32.42;13.55;;;-2.40;99.90;;;;;;5009253;28;20505;-62
2023/12/03 01:33:38;;;;;;;27.83;14.15;;;-2.50;99.90;;;;;;5019598;28;20045;-61
2023/12/03 01:36:05;;;;;;;28.52;13.02;;;-2.50;99.90;;;;;;5020789;28;20041;-61
2023/12/03 01:38:32;;;;;;;27.65;13.32;;;-2.50;99.90;;;;;;5003687;28;20044;-59
2023/12/03 01:40:59;;;;;;;27.50;13.35;;;-2.50;99.90;;;;;;5010009;28;20044;-61
2023/12/03 01:43:26;;;;;;;28.13;13.82;;;-2.50;99.90;;;;;;5028589;28;20497;-61
2023/12/03 01:45:52;;;;;;;29.90;14.25;;;-2.60;99.90;;;;;;5012717;28;20053;-60
2023/12/03 01:48:19;;;;;;;27.83;13.45;;;-2.60;99.90;;;;;;5016919;28;20414;-61
2023/12/03 01:50:49;;;;;;;29.65;12.68;;;-2.70;99.90;;;;;;5017825;28;20055;-60
2023/12/03 01:53:18;;;;;;;30.40;13.02;;;-2.80;99.90;;;;;;5010924;28;20044;-62
2023/12/03 01:55:45;;;;;;;30.70;12.77;;;-2.80;99.90;;;;;;5010535;28;20042;-62
2023/12/03 01:58:12;;;;;;;30.13;13.75;;;-2.90;99.90;;;;;;5017149;28;20044;-61
2023/12/03 02:00:39;;;;;;;;;;;-2.90;99.90;;;;;;5022225;28;20486;-58
2023/12/03 02:03:13;;;;;;;27.55;12.90;;;-3.00;99.90;;;;;;5026068;28;19925;-61
2023/12/03 02:05:49;;;;;;;29.95;14.48;;;-3.00;99.90;;;;;;5007694;28;20041;-62
2023/12/03 02:08:16;;;;;;;30.73;13.63;;;-3.00;99.90;;;;;;5013639;28;20423;-62
2023/12/03 02:10:43;;;;;;;31.10;14.35;;;-3.00;99.90;;;;;;5019302;28;20048;-61
2023/12/03 02:13:10;;;;;;;28.25;13.77;;;-2.90;99.90;;;;;;5031666;28;20033;-62
2023/12/03 02:15:36;;;;;;;28.42;12.60;;;-2.90;99.90;;;;;;4998645;28;20038;-60
2023/12/03 02:18:03;;;;;;;28.15;13.82;;;-3.00;99.90;;;;;;5013915;28;20045;-62
2023/12/03 02:20:30;;;;;;;31.50;14.70;;;-2.90;99.90;;;;;;5028994;28;20449;-62
2023/12/03 02:22:58;;;;;;;31.80;14.30;;;-2.90;99.90;;;;;;5021844;28;20077;-62
2023/12/03 02:25:25;;;;;;;32.08;15.23;;;-2.90;99.90;;;;;;4990586;28;20111;-62
2023/12/03 02:27:52;;;;;;;33.03;14.55;;;-2.90;99.90;;;;;;5014368;28;20046;-62
2023/12/03 02:30:19;;;;;;;28.52;13.45;;;-2.90;99.90;;;;;;5018525;28;20124;-60
2023/12/03 02:32:45;;;;;;;31.30;13.20;;;-3.00;99.90;;;;;;5007727;28;20065;-62
2023/12/03 02:35:12;;;;;;;30.10;14.10;;;-3.00;99.90;;;;;;5017464;28;20506;-62
2023/12/03 02:37:39;;;;;;;32.42;13.43;;;-3.00;99.90;;;;;;5023209;28;20041;-62
2023/12/03 02:40:07;;;;;;;29.35;14.05;;;-2.90;99.90;;;;;;5031218;28;20399;-62
2023/12/03 02:42:33;;;;;;;30.60;13.27;;;-2.90;99.90;;;;;;5009505;28;20043;-61
2023/12/03 02:45:00;;;;;;;32.10;14.38;;;-3.00;99.90;;;;;;5021207;28;20069;-62
2023/12/03 02:47:27;;;;;;;33.00;14.77;;;-3.00;99.90;;;;;;5018438;28;20059;-62
2023/12/03 02:49:54;;;;;;;31.45;14.00;;;-3.10;99.90;;;;;;5017638;28;20057;-61
2023/12/03 02:52:20;;;;;;;30.80;13.90;;;-3.10;99.90;;;;;;5024987;28;20409;-62
2023/12/03 02:54:47;;;;;;;32.35;13.60;;;-3.10;99.90;;;;;;5008228;28;20034;-62
2023/12/03 02:57:14;;;;;;;27.08;12.52;;;-3.10;99.90;;;;;;4992073;28;20050;-62
2023/12/03 02:59:41;;;;;;;32.65;14.75;;;-3.20;99.90;;;;;;5007434;28;20091;-62
2023/12/03 03:02:08;;;;;;;26.95;13.43;;;-3.10;99.90;;;;;;5014642;28;20041;-62
2023/12/03 03:04:34;;;;;;;29.63;13.20;;;-3.10;99.90;;;;;;4992114;28;20092;-61
2023/12/03 03:07:01;;;;;;;29.30;13.50;;;-3.20;99.90;;;;;;5021119;28;20141;-62
2023/12/03 03:09:28;;;;;;;32.33;14.25;;;-3.10;99.90;;;;;;5028931;28;20642;-61
2023/12/03 03:11:57;;;;;;;30.05;13.98;;;-3.20;99.90;;;;;;5017180;28;20087;-62
2023/12/03 03:14:24;;;;;;;28.70;13.07;;;-3.30;99.90;;;;;;5024257;28;20033;-62
2023/12/03 03:16:51;;;;;;;28.70;14.00;;;-3.30;99.90;;;;;;5009343;28;20045;-63
2023/12/03 03:19:18;;;;;;;30.00;13.63;;;-3.30;99.90;;;;;;5008307;28;20047;-61
2023/12/03 03:21:44;;;;;;;27.08;12.55;;;-3.30;99.90;;;;;;5022680;28;20486;-61
2023/12/03 03:24:12;;;;;;;29.27;13.75;;;-3.30;99.90;;;;;;5012914;28;20041;-62
2023/12/03 03:26:39;;;;;;;26.30;12.73;;;-3.30;99.90;;;;;;5012164;28;20066;-62
2023/12/03 03:29:06;;;;;;;25.35;11.85;;;-3.30;99.90;;;;;;5018611;28;20061;-61
2023/12/03 03:31:33;;;;;;;26.15;10.90;;;-3.30;99.90;;;;;;5012318;28;20037;-61
2023/12/03 03:34:00;;;;;;;;;;;-3.30;99.90;;;;;;5029634;28;20132;-61
2023/12/03 03:36:27;;;;;;;27.83;12.65;;;-3.30;99.90;;;;;;5018658;28;19967;-62
2023/12/03 03:38:54;;;;;;;26.02;13.05;;;-3.30;99.90;;;;;;5022800;28;20395;-62
2023/12/03 03:41:20;;;;;;;27.88;13.52;;;-3.20;99.90;;;;;;5023022;28;20068;-61
2023/12/03 03:43:48;;;;;;;28.08;13.52;;;-3.20;99.90;;;;;;5027825;28;20065;-62
2023/12/03 03:46:15;;;;;;;28.58;13.80;;;-3.20;99.90;;;;;;5015481;28;20442;-61
2023/12/03 03:48:41;;;;;;;26.73;12.98;;;-3.20;99.90;;;;;;5023658;28;20050;-60
2023/12/03 03:51:08;;;;;;;27.55;12.77;;;-3.20;99.90;;;;;;5023508;28;20070;-60
2023/12/03 03:53:35;;;;;;;25.85;12.23;;;-3.20;99.90;;;;;;5020478;28;20037;-62
2023/12/03 03:56:07;;;;;;;32.25;11.90;;;-3.30;99.90;;;;;;5027115;28;20069;-61
2023/12/03 03:58:36;;;;;;;27.85;12.25;;;-3.30;99.90;;;;;;5002773;28;20052;-62
2023/12/03 04:01:04;;;;;;;26.58;13.27;;;-3.20;99.90;;;;;;5012769;28;20045;-61
2023/12/03 04:03:31;;;;;;;26.50;12.75;;;-3.30;99.90;;;;;;5028319;28;20041;-62
2023/12/03 04:06:05;;;;;;;30.38;13.18;;;-3.20;99.90;;;;;;5011895;28;20050;-62
2023/12/03 04:08:33;;;;;;;27.00;12.82;;;-3.20;99.90;;;;;;5014887;28;20373;-62
2023/12/03 04:11:07;;;;;;;27.38;11.80;;;-3.20;99.90;;;;;;4991699;28;20453;-62
2023/12/03 04:13:33;;;;;;;24.73;12.48;;;-3.20;99.90;;;;;;5019251;28;20041;-62
2023/12/03 04:16:00;;;;;;;27.85;13.48;;;-3.20;99.90;;;;;;5021269;28;20124;-63
2023/12/03 04:18:27;;;;;;;29.58;12.80;;;-3.20;99.90;;;;;;5034283;28;20047;-62
2023/12/03 04:20:54;;;;;;;26.67;12.65;;;-3.20;99.90;;;;;;5010133;28;20509;-62
2023/12/03 04:23:21;;;;;;;26.75;13.35;;;-3.30;99.90;;;;;;5030203;28;20045;-61
2023/12/03 04:25:48;;;;;;;;;;;-3.30;99.90;;;;;;5021926;28;20064;-61
2023/12/03 04:28:15;;;;;;;26.48;12.68;;;-3.30;99.90;;;;;;5029709;28;19944;-62
2023/12/03 04:30:41;;;;;;;29.27;13.18;;;-3.30;99.90;;;;;;5014255;28;20486;-62
2023/12/03 04:33:08;;;;;;;24.67;12.13;;;-3.30;99.90;;;;;;5030262;28;20056;-61
2023/12/03 04:35:35;;;;;;;27.10;12.48;;;-3.40;99.90;;;;;;5021043;28;20049;-61
2023/12/03 04:38:02;;;;;;;29.90;13.00;;;-3.40;99.90;;;;;;5022161;28;20128;-62
2023/12/03 04:40:29;;;;;;;28.50;12.13;;;-3.50;99.90;;;;;;5010852;28;20125;-62
2023/12/03 04:42:55;;;;;;;24.75;12.27;;;-3.60;99.90;;;;;;5019472;28;20045;-62
2023/12/03 04:45:22;;;;;;;25.27;11.70;;;-3.70;99.90;;;;;;5025266;28;20041;-62
2023/12/03 04:47:49;;;;;;;25.55;11.65;;;-3.80;99.90;;;;;;5026391;28;20486;-62
2023/12/03 04:50:16;;;;;;;27.77;11.65;;;-3.90;99.90;;;;;;5009851;28;20060;-62
2023/12/03 04:52:43;;;;;;;26.27;11.50;;;-4.00;99.90;;;;;;5021839;28;20446;-62
2023/12/03 04:55:09;;;;;;;29.05;12.02;;;-4.00;99.90;;;;;;5021341;28;20042;-62
2023/12/03 04:57:36;;;;;;;26.80;12.38;;;-4.00;99.90;;;;;;5007581;28;20049;-61
2023/12/03 05:00:04;;;;;;;24.38;11.43;;;-4.00;99.90;;;;;;5017936;28;20061;-62
2023/12/03 05:02:30;;;;;;;27.27;13.10;;;-4.00;99.90;;;;;;5021727;28;20041;-62
2023/12/03 05:04:57;;;;;;;29.05;11.68;;;-4.00;99.90;;;;;;5011089;28;20068;-62
2023/12/03 05:07:24;;;;;;;24.60;11.88;;;-4.10;99.90;;;;;;5008975;28;20397;-62
2023/12/03 05:09:51;;;;;;;28.42;13.18;;;-4.10;99.90;;;;;;5028924;28;20128;-62
2023/12/03 05:12:18;;;;;;;25.40;11.30;;;-4.00;99.90;;;;;;5024983;28;20038;-61
2023/12/03 05:14:44;;;;;;;24.83;11.57;;;-4.10;99.90;;;;;;5018364;28;20096;-62
2023/12/03 05:17:11;;;;;;;27.23;12.00;;;-4.20;99.90;;;;;;5029987;28;20514;-61
2023/12/03 05:19:41;;;;;;;27.15;10.70;;;-4.20;99.90;;;;;;5025884;28;20049;-62
2023/12/03 05:22:08;;;;;;;30.08;12.65;;;-4.20;99.90;;;;;;5011377;28;20052;-62
2023/12/03 05:24:35;;;;;;;26.67;11.80;;;-4.20;99.90;;;;;;5025904;28;20037;-61
2023/12/03 05:27:02;;;;;;;28.50;13.25;;;-4.10;99.90;;;;;;5009959;28;20499;-61
2023/12/03 05:29:29;;;;;;;35.55;15.70;;;-4.00;99.90;;;;;;5025035;28;20047;-62
2023/12/03 05:31:56;;;;;;;38.40;15.82;;;-4.00;99.90;;;;;;5008241;28;20045;-62
2023/12/03 05:34:22;;;;;;;44.13;17.42;;;-3.90;99.90;;;;;;5029630;28;20460;-62
2023/12/03 05:36:51;;;;;;;44.60;17.33;;;-3.80;99.90;;;;;;5021864;28;20484;-62
2023/12/03 05:39:21;;;;;;;44.85;18.95;;;-3.80;99.90;;;;;;5021443;28;20041;-61
2023/12/03 05:41:48;;;;;;;45.10;18.15;;;-3.80;99.90;;;;;;5020616;28;20046;-62
2023/12/03 05:44:14;;;;;;;49.08;17.83;;;-3.70;99.90;;;;;;5027473;28;20049;-62
2023/12/03 05:46:42;;;;;;;45.47;17.85;;;-3.70;99.90;;;;;;5026585;28;20049;-61
2023/12/03 05:49:09;;;;;;;43.10;17.70;;;-3.60;99.90;;;;;;5022070;28;20179;-62
2023/12/03 05:51:36;;;;;;;41.63;16.50;;;-3.60;99.90;;;;;;5009211;28;20491;-61
2023/12/03 05:54:03;;;;;;;39.83;16.60;;;-3.60;99.90;;;;;;5010988;28;20077;-62
2023/12/03 05:56:30;;;;;;;38.83;16.05;;;-3.50;99.90;;;;;;5012866;28;20038;-62
2023/12/03 05:58:57;;;;;;;41.40;16.60;;;-3.50;99.90;;;;;;5012559;28;20060;-62
2023/12/03 06:01:24;;;;;;;33.95;16.20;;;-3.50;99.90;;;;;;5016339;28;20037;-62
2023/12/03 06:03:51;;;;;;;35.53;16.40;;;-3.50;99.90;;;;;;5025686;28;20476;-61
2023/12/03 06:06:18;;;;;;;36.25;16.48;;;-3.40;99.90;;;;;;5023472;28;20045;-61
2023/12/03 06:08:45;;;;;;;;;;;-3.40;99.90;;;;;;5029811;28;20047;-61
2023/12/03 06:11:12;;;;;;;42.35;16.67;;;-3.40;99.90;;;;;;5015446;28;20391;-62
2023/12/03 06:13:39;;;;;;;34.40;16.35;;;-3.50;99.90;;;;;;5017309;28;20048;-62
2023/12/03 06:16:07;;;;;;;42.78;17.90;;;-3.40;99.90;;;;;;5020034;28;20045;-62
2023/12/03 06:18:34;;;;;;;39.78;17.20;;;-3.50;99.90;;;;;;5032415;28;20049;-62
2023/12/03 06:21:02;;;;;;;40.05;18.17;;;-3.50;99.90;;;;;;5014344;28;20100;-62
2023/12/03 06:23:29;;;;;;;49.10;20.00;;;-3.50;99.90;;;;;;5015648;28;20127;-62
2023/12/03 06:25:56;;;;;;;47.17;21.25;;;-3.50;99.90;;;;;;5009770;28;20050;-62
2023/12/03 06:28:23;;;;;;;47.75;19.73;;;-3.50;99.90;;;;;;5008375;28;20034;-62
2023/12/03 06:30:50;;;;;;;56.15;21.48;;;-3.50;99.90;;;;;;5012344;28;20038;-62
2023/12/03 06:33:19;;;;;;;52.05;22.70;;;-3.40;99.90;;;;;;5012399;28;20403;-61
2023/12/03 06:35:49;;;;;;;44.22;19.20;;;-3.40;99.90;;;;;;5009410;28;20096;-61
2023/12/03 06:38:16;;;;;;;42.00;19.75;;;-3.40;99.90;;;;;;5021155;28;20767;-62
2023/12/03 06:40:43;;;;;;;45.47;19.90;;;-3.40;99.90;;;;;;5012768;28;20395;-61
2023/12/03 06:43:10;;;;;;;39.10;16.45;;;-3.50;99.90;;;;;;5016765;28;20052;-62
2023/12/03 06:45:40;;;;;;;44.20;19.52;;;-3.50;99.90;;;;;;5020849;28;20398;-62
2023/12/03 06:48:07;;;;;;;35.25;17.25;;;-3.50;99.90;;;;;;5021338;28;20088;-61
2023/12/03 06:50:34;;;;;;;40.90;19.05;;;-3.50;99.90;;;;;;5005473;28;20065;-62
2023/12/03 06:53:01;;;;;;;43.40;19.42;;;-3.60;99.90;;;;;;5015465;28;20046;-62
2023/12/03 06:55:28;;;;;;;40.78;17.17;;;-3.50;99.90;;;;;;5011035;28;20049;-62
2023/12/03 06:57:55;;;;;;;46.45;19.08;;;-3.60;99.90;;;;;;5026200;28;20510;-62
2023/12/03 07:00:25;;;;;;;;;;;-3.60;99.90;;;;;;5031659;28;20099;-62
2023/12/03 07:02:52;;;;;;;35.42;15.77;;;-3.50;99.90;;;;;;5013925;28;20287;-61
2023/12/03 07:05:18;;;;;;;28.63;13.02;;;-3.50;99.90;;;;;;5023236;28;20813;-62
2023/12/03 07:07:50;;;;;;;29.55;13.57;;;-3.60;99.90;;;;;;5024900;28;20049;-62
2023/12/03 07:10:17;;;;;;;28.92;12.85;;;-3.80;99.90;;;;;;5014643;28;20045;-62
2023/12/03 07:12:44;;;;;;;33.47;14.68;;;-3.90;99.90;;;;;;5020858;28;20658;-62
2023/12/03 07:15:11;;;;;;;33.45;14.57;;;-3.90;99.90;;;;;;4993292;28;20048;-62
2023/12/03 07:17:40;;;;;;;32.05;14.77;;;-3.90;99.90;;;;;;5023469;28;20042;-62
2023/12/03 07:20:08;;;;;;;31.92;13.40;;;-4.00;99.90;;;;;;5023458;28;20501;-61
2023/12/03 07:22:35;;;;;;;29.65;13.27;;;-4.10;99.90;;;;;;5004895;28;20502;-61
2023/12/03 07:25:05;;;;;;;31.08;13.98;;;-4.10;99.90;;;;;;5028069;28;20046;-62
2023/12/03 07:27:31;;;;;;;30.58;13.55;;;-4.10;99.90;;;;;;5008996;28;20050;-62
2023/12/03 07:29:58;;;;;;;34.13;14.63;;;-4.10;99.90;;;;;;5023358;28;20041;-62
2023/12/03 07:32:25;;;;;;;30.85;14.40;;;-4.20;99.90;;;;;;5005595;28;20046;-60
2023/12/03 07:34:52;;;;;;;31.40;13.82;;;-4.20;99.90;;;;;;5016629;28;20503;-62
2023/12/03 07:37:19;;;;;;;32.40;16.65;;;-4.30;99.90;;;;;;5020648;28;20049;-61
2023/12/03 07:39:46;;;;;;;31.10;16.38;;;-4.20;99.90;;;;;;5013829;28;20053;-61
2023/12/03 07:42:13;;;;;;;50.97;23.23;;;-4.20;99.90;;;;;;5007782;28;20053;-62
2023/12/03 07:44:40;;;;;;;73.00;27.60;;;-4.20;99.90;;;;;;5011210;28;20108;-62
2023/12/03 07:47:07;;;;;;;53.72;21.70;;;-4.20;99.90;;;;;;5018310;28;20136;-62
2023/12/03 07:49:34;;;;;;;41.67;16.45;;;-4.30;99.90;;;;;;5012177;28;20119;-61
2023/12/03 07:52:01;;;;;;;50.00;19.60;;;-4.30;99.90;;;;;;5008704;28;20078;-61
2023/12/03 07:54:27;;;;;;;61.80;27.27;;;-4.30;99.90;;;;;;5029829;28;20545;-61
2023/12/03 07:56:54;;;;;;;77.55;32.10;;;-4.30;99.90;;;;;;5030933;28;20049;-61
2023/12/03 07:59:21;;;;;;;69.78;28.98;;;-4.20;99.90;;;;;;5017811;28;20049;-61
2023/12/03 08:01:48;;;;;;;63.30;28.23;;;-4.20;99.90;;;;;;5024004;28;20136;-62
2023/12/03 08:04:15;;;;;;;61.42;28.95;;;-4.10;99.90;;;;;;5011235;28;20045;-62
2023/12/03 08:06:41;;;;;;;82.43;35.03;;;-4.10;99.90;;;;;;4989240;28;20043;-60
2023/12/03 08:09:08;;;;;;;99.38;35.00;;;-4.00;99.90;;;;;;5014832;28;20033;-61
2023/12/03 08:11:37;;;;;;;73.43;32.58;;;-3.90;99.90;;;;;;5020172;28;20049;-62
2023/12/03 08:14:04;;;;;;;59.28;24.92;;;-3.90;99.90;;;;;;5012070;28;20045;-61
2023/12/03 08:16:31;;;;;;;62.53;26.25;;;-3.90;99.90;;;;;;5011014;28;20460;-62
2023/12/03 08:18:58;;;;;;;45.58;19.42;;;-3.80;99.90;;;;;;5016624;28;20045;-62
2023/12/03 08:21:25;;;;;;;41.45;18.02;;;-3.80;99.90;;;;;;5028340;28;20057;-62
2023/12/03 08:23:52;;;;;;;40.10;18.35;;;-3.80;99.90;;;;;;5019554;28;20073;-62
2023/12/03 08:26:19;;;;;;;39.85;17.90;;;-3.80;99.90;;;;;;5019132;28;20046;-62
2023/12/03 08:28:46;;;;;;;34.33;14.95;;;-3.80;99.90;;;;;;4997092;28;20387;-62
2023/12/03 08:31:12;;;;;;;39.67;16.02;;;-3.60;99.90;;;;;;5029762;28;20073;-62
2023/12/03 08:33:44;;;;;;;39.00;16.42;;;-3.40;99.90;;;;;;5013371;28;20050;-61
2023/12/03 08:36:17;;;;;;;37.97;15.80;;;-3.10;99.90;;;;;;5010010;28;20046;-62
2023/12/03 08:38:45;;;;;;;38.75;16.95;;;-2.80;99.90;;;;;;5010258;28;20053;-62
2023/12/03 08:41:12;;;;;;;38.75;18.40;;;-2.70;99.90;;;;;;5013068;28;20084;-62
2023/12/03 08:43:39;;;;;;;41.70;18.85;;;-2.60;99.90;;;;;;5026219;28;20164;-62
2023/12/03 08:46:07;;;;;;;44.28;18.15;;;-2.50;99.90;;;;;;5006399;28;20409;-62
2023/12/03 08:48:34;;;;;;;48.85;18.42;;;-2.40;99.90;;;;;;5022204;28;20038;-62
2023/12/03 08:51:01;;;;;;;34.42;16.65;;;-2.30;99.90;;;;;;5027614;28;20552;-62
2023/12/03 08:53:28;;;;;;;63.55;24.83;;;-2.20;99.90;;;;;;5018339;28;20045;-61
2023/12/03 08:55:58;;;;;;;39.67;19.40;;;-2.10;99.90;;;;;;5029100;28;20082;-61
2023/12/03 08:58:26;;;;;;;36.17;15.95;;;-1.90;99.90;;;;;;5008841;28;20056;-61
2023/12/03 09:00:53;;;;;;;35.17;16.98;;;-1.80;99.90;;;;;;5001982;28;20050;-61
2023/12/03 09:03:20;;;;;;;32.75;16.80;;;-1.80;99.90;;;;;;5021788;28;20056;-61
2023/12/03 09:05:47;;;;;;;28.85;16.95;;;-1.60;99.90;;;;;;5009285;28;20053;-61
2023/12/03 09:08:13;;;;;;;26.23;13.35;;;-1.50;99.90;;;;;;5020600;28;20063;-60
2023/12/03 09:10:40;;;;;;;30.33;14.13;;;-1.50;99.90;;;;;;5018491;28;20064;-61
2023/12/03 09:13:07;;;;;;;31.90;15.00;;;-1.50;99.90;;;;;;5028524;28;20034;-61
2023/12/03 09:15:34;;;;;;;33.38;15.60;;;-1.40;99.90;;;;;;5027696;28;20116;-61
2023/12/03 09:18:00;;;;;;;35.88;18.88;;;-1.40;99.90;;;;;;5027500;28;20124;-61
2023/12/03 09:20:27;;;;;;;32.72;16.23;;;-1.30;99.90;;;;;;4986530;28;20072;-60
2023/12/03 09:22:54;;;;;;;33.55;16.27;;;-1.40;99.90;;;;;;5007330;28;20038;-60
2023/12/03 09:25:21;;;;;;;38.00;18.75;;;-1.20;99.90;;;;;;5014295;28;20038;-61
2023/12/03 09:27:48;;;;;;;40.00;20.20;;;-1.10;99.90;;;;;;5010220;28;20061;-61
2023/12/03 09:30:15;;;;;;;37.83;16.50;;;-1.10;99.90;;;;;;4996653;28;20105;-61
2023/12/03 09:32:42;;;;;;;29.52;15.15;;;-1.20;99.90;;;;;;5020469;28;20052;-62
2023/12/03 09:35:08;;;;;;;33.90;15.50;;;-1.20;99.90;;;;;;5026374;28;20096;-60
2023/12/03 09:37:35;;;;;;;27.58;13.45;;;-1.30;99.90;;;;;;5020753;28;20586;-61
2023/12/03 09:40:03;;;;;;;26.15;12.38;;;-1.30;99.90;;;;;;5032844;28;20185;-60
2023/12/03 09:42:34;;;;;;;25.70;12.60;;;-1.30;99.90;;;;;;5017591;28;20470;-62
2023/12/03 09:45:04;;;;;;;37.63;15.70;;;-1.10;99.90;;;;;;5025197;28;20037;-60
2023/12/03 09:47:35;;;;;;;28.33;14.00;;;-0.90;99.90;;;;;;5018831;28;20116;-62
2023/12/03 09:50:04;;;;;;;30.10;13.85;;;-0.90;99.90;;;;;;5032024;28;20052;-62
2023/12/03 09:52:34;;;;;;;29.73;14.27;;;-0.80;99.90;;;;;;5018567;28;20053;-62
2023/12/03 09:55:02;;;;;;;26.02;12.55;;;-0.90;99.90;;;;;;5011346;28;20541;-62
2023/12/03 09:57:31;;;;;;;28.80;13.43;;;-0.90;99.90;;;;;;5011831;28;20483;-61
2023/12/03 10:00:01;;;;;;;29.80;13.90;;;-0.90;99.90;;;;;;5011704;28;20073;-61
2023/12/03 10:02:36;;;;;;;32.85;14.63;;;-1.00;99.90;;;;;;5012363;28;20049;-62
2023/12/03 10:05:04;;;;;;;30.50;14.45;;;-1.00;99.90;;;;;;5007901;28;20463;-61
2023/12/03 10:07:31;;;;;;;25.58;12.70;;;-0.90;99.90;;;;;;5012249;28;20041;-60
2023/12/03 10:09:59;;;;;;;24.75;13.32;;;-1.00;99.90;;;;;;5012078;28;20482;-62
2023/12/03 10:12:41;;;;;;;33.80;16.38;;;-1.00;99.90;;;;;;5017407;28;20091;-62
2023/12/03 10:15:09;;;;;;;28.23;14.55;;;-1.00;99.90;;;;;;5009249;28;20069;-59
2023/12/03 10:17:39;;;;;;;28.67;15.82;;;-1.00;99.90;;;;;;5028721;28;20104;-61
2023/12/03 10:20:21;;;;;;;21.88;11.82;;;-1.10;99.90;;;;;;5025827;28;20034;-61
2023/12/03 10:22:52;;;;;;;27.00;12.77;;;-1.30;99.90;;;;;;5002752;28;20085;-62
2023/12/03 10:25:29;;;;;;;26.75;13.20;;;-1.20;99.90;;;;;;5027439;28;20073;-62
2023/12/03 10:27:57;;;;;;;23.88;11.95;;;-1.00;99.90;;;;;;5022421;28;20045;-62
2023/12/03 10:30:25;;;;;;;25.63;11.38;;;-0.90;99.90;;;;;;5004273;28;20042;-62
2023/12/03 10:32:52;;;;;;;28.63;12.60;;;-0.80;99.90;;;;;;5010988;28;20034;-62
2023/12/03 10:35:22;;;;;;;27.67;12.98;;;-0.70;99.90;;;;;;5016194;28;20050;-61
2023/12/03 10:37:50;;;;;;;25.42;13.68;;;-0.60;99.90;;;;;;5011389;28;20487;-61
2023/12/03 10:40:18;;;;;;;28.48;12.88;;;-0.70;99.90;;;;;;5011201;28;20053;-61
2023/12/03 10:42:45;;;;;;;22.77;12.10;;;-0.60;99.90;;;;;;5004760;28;20069;-62
2023/12/03 10:45:14;;;;;;;26.17;12.57;;;-0.70;99.90;;;;;;5017187;28;20076;-62
2023/12/03 10:47:42;;;;;;;22.92;11.32;;;-0.60;99.90;;;;;;5009923;28;20133;-62
2023/12/03 10:50:12;;;;;;;26.15;13.10;;;-0.60;99.90;;;;;;5012067;28;20050;-62
2023/12/03 10:52:40;;;;;;;23.77;11.77;;;-0.50;99.90;;;;;;5012285;28;20046;-62
2023/12/03 10:55:08;;;;;;;25.23;13.15;;;-0.50;99.90;;;;;;5011389;28;20034;-62
2023/12/03 10:58:00;;;;;;;25.50;12.27;;;-0.50;99.90;;;;;;4992876;28;20038;-61
2023/12/03 11:00:38;;;;;;;23.35;12.35;;;-0.50;99.90;;;;;;4994072;28;20056;-62
2023/12/03 11:03:20;;;;;;;24.48;12.85;;;-0.60;99.90;;;;;;5011508;28;20449;-61
2023/12/03 11:05:52;;;;;;;39.65;20.35;;;-0.60;99.90;;;;;;5015224;28;20037;-61
2023/12/03 11:08:23;;;;;;;25.30;13.32;;;-0.60;99.90;;;;;;5010694;28;20037;-61
2023/12/03 11:10:54;;;;;;;33.35;17.52;;;-0.70;99.90;;;;;;5002594;28;20049;-62
2023/12/03 11:13:22;;;;;;;51.95;20.75;;;-0.60;99.90;;;;;;5008321;28;20097;-62
2023/12/03 11:16:04;;;;;;;28.75;13.60;;;-0.70;99.90;;;;;;4999619;28;20074;-62
2023/12/03 11:18:33;;;;;;;25.80;12.25;;;-0.70;99.90;;;;;;5019421;28;20030;-62
2023/12/03 11:21:14;;;;;;;28.17;13.70;;;-0.60;99.90;;;;;;5002147;28;20449;-62
2023/12/03 11:24:09;;;;;;;25.73;12.27;;;-0.60;99.90;;;;;;5008429;28;20041;-62
2023/12/03 11:26:36;;;;;;;26.48;12.75;;;-0.60;99.90;;;;;;5011118;28;20042;-62
2023/12/03 11:29:03;;;;;;;27.58;13.95;;;-0.40;99.90;;;;;;4992116;28;20502;-61
2023/12/03 11:31:29;;;;;;;24.10;11.75;;;-0.40;99.90;;;;;;5011465;28;20044;-62
2023/12/03 11:33:59;;;;;;;32.03;13.50;;;-0.60;99.90;;;;;;5010118;28;20060;-62
2023/12/03 11:36:49;;;;;;;29.75;13.43;;;-0.70;99.90;;;;;;5015921;28;20076;-62
2023/12/03 11:39:22;;;;;;;25.58;13.15;;;-0.60;99.90;;;;;;5009746;28;20050;-62
2023/12/03 11:41:58;;;;;;;24.92;11.68;;;-0.50;99.90;;;;;;5021972;28;20042;-61
2023/12/03 11:44:25;;;;;;;25.67;11.73;;;-0.40;99.90;;;;;;5010576;28;20625;-59
2023/12/03 11:47:03;;;;;;;24.23;11.70;;;-0.50;99.90;;;;;;5002926;28;20045;-62
2023/12/03 11:49:33;;;;;;;27.70;12.60;;;-0.50;99.90;;;;;;5010389;28;20038;-61
2023/12/03 11:52:01;;;;;;;27.15;11.90;;;-0.50;99.90;;;;;;5023032;28;20075;-61
2023/12/03 11:54:40;;;;;;;23.23;12.23;;;-0.50;99.90;;;;;;5014274;28;20037;-62
2023/12/03 11:57:16;;;;;;;28.00;11.85;;;-0.50;99.90;;;;;;5013676;28;20046;-61
2023/12/03 11:59:44;;;;;;;35.47;12.05;;;-0.50;99.90;;;;;;5020537;28;20065;-62
2023/12/03 12:02:13;;;;;;;27.67;12.20;;;-0.50;99.90;;;;;;5017127;28;20129;-61
2023/12/03 12:04:40;;;;;;;26.00;13.02;;;-0.50;99.90;;;;;;5009294;28;20053;-62
2023/12/03 12:07:17;;;;;;;22.30;11.38;;;-0.50;99.90;;;;;;5010491;28;20492;-61
2023/12/03 12:09:48;;;;;;;31.88;11.88;;;-0.50;99.90;;;;;;5009738;28;20050;-62
2023/12/03 12:12:15;;;;;;;28.25;11.98;;;-0.60;99.90;;;;;;5006254;28;20049;-62
2023/12/03 12:14:44;;;;;;;28.35;13.15;;;-0.60;99.90;;;;;;5011141;28;20096;-62
2023/12/03 12:17:11;;;;;;;31.90;12.85;;;-0.60;99.90;;;;;;5024060;28;20034;-61
2023/12/03 12:19:48;;;;;;;30.05;13.02;;;-0.70;99.90;;;;;;5005481;28;20039;-61
2023/12/03 12:22:16;;;;;;;26.42;12.45;;;-0.80;99.90;;;;;;5007601;28;20570;-62
2023/12/03 12:24:46;;;;;;;25.65;12.30;;;-0.80;99.90;;;;;;5023777;28;20045;-61
2023/12/03 12:27:13;;;;;;;29.38;12.18;;;-0.90;99.90;;;;;;5025267;28;20041;-61
2023/12/03 12:29:40;;;;;;;26.02;12.82;;;-0.90;99.90;;;;;;4997675;28;20121;-62
2023/12/03 12:32:07;;;;;;;30.75;13.38;;;-0.90;99.90;;;;;;5013911;28;20044;-61